METAR Formatted Surface Weather Observation
Issued by NWS Duluth, MN

Home | Current Version | Previous Version | Text Only | Print | Product List | Glossary On
Versions: 1 2
000
SAUS43 KDLH 251611
MTRINL
SPECI KINL 251609Z AUTO 35009KT 10SM SCT021 14/09 A3011 RMK AO2
T01440094 TSNO



USA.gov is the U.S. government's official web portal to all federal, state and local government web resources and services.